CYBB/YBB METAR and TAF weather

Enter ICAO airport designator
Station Type Date Time Source
CYBB METAR 2020/01/18 00:00 UTC NOAA

CYBB 180000Z 25020KT 3/4SM BLSN BKN006 M29/M32 A3014 RMK BLSN6ST1 0.8/MUCH LOOSE/LAST STFD OBS/NXT/181600Z SLP210


Station Type Date Time Source
CYBB Decoded METAR 2020/01/18 00:00 UTC NOAA

Pelly Bay Airport, Canada (CYBB) 68-32N 089-49W
Jan 17, 2020 - 07:00 PM EST / 2020.01.18 0000 UTC
Wind: from the WSW (250 degrees) at 23 MPH (20 KT):0
Visibility: 3/4 mile(s):0
Sky conditions: mostly cloudy
Weather: blowing snow
Temperature: -20 F (-29 C)
Windchill: -49 F (-45 C):2
Dew Point: -25 F (-32 C)
Relative Humidity: 75%
Pressure (altimeter): 30.14 in. Hg (1020 hPa)
ob: CYBB 180000Z 25020KT 3/4SM BLSN BKN006 M29/M32 A3014 RMK BLSN6ST1 0.8/MUCH LOOSE/LAST STFD OBS/NXT/181600Z SLP210
cycle: 0

Station Type Date Time Source
CYBB TAF 2020/01/17 19:00 UTC NOAA

TAF CYBB 171838Z 1719/1724 25020G30KT 1/2SM BLSN BKN010
TEMPO 1719/1724 2SM BLSN SCT010
RMK NXT FCST WILL BE ISSUED AT 181745Z

Example: see airport list